createdAt,value
2022-08-27T00:01:20.825Z,1.00
2022-08-27T00:03:47.605Z,0.87
2022-08-27T00:06:17.025Z,1.00
2022-08-27T00:08:44.740Z,1.00
2022-08-27T00:11:12.694Z,1.00
2022-08-27T00:13:39.861Z,1.10
2022-08-27T00:16:09.071Z,0.93
2022-08-27T00:18:37.127Z,1.00
2022-08-27T00:21:03.848Z,0.90
2022-08-27T00:23:33.747Z,1.20
2022-08-27T00:26:00.456Z,1.00
2022-08-27T00:28:27.949Z,1.13
2022-08-27T00:30:57.728Z,0.90
2022-08-27T00:33:24.969Z,0.73
2022-08-27T00:35:52.482Z,1.00
2022-08-27T00:38:21.367Z,1.10
2022-08-27T00:40:48.334Z,1.00
2022-08-27T00:43:25.414Z,1.13
2022-08-27T00:45:56.081Z,0.87
2022-08-27T00:48:28.368Z,0.97
2022-08-27T00:50:55.854Z,0.87
2022-08-27T00:53:26.375Z,1.03
2022-08-27T00:55:58.694Z,0.83
2022-08-27T00:58:30.097Z,0.80
2022-08-27T01:00:58.182Z,0.90
2022-08-27T01:03:26.910Z,1.37
2022-08-27T01:05:56.587Z,0.90
2022-08-27T01:08:26.468Z,1.20
2022-08-27T01:10:55.510Z,1.33
2022-08-27T01:13:59.099Z,1.07
2022-08-27T01:16:17.121Z,1.03
2022-08-27T01:18:44.660Z,1.00
2022-08-27T01:21:20.158Z,1.13
2022-08-27T01:24:04.890Z,1.10
2022-08-27T01:26:31.906Z,1.20
2022-08-27T01:28:59.189Z,1.40
2022-08-27T01:31:25.954Z,1.00
2022-08-27T01:34:12.850Z,1.07
2022-08-27T01:36:40.080Z,1.13
2022-08-27T01:39:06.927Z,1.00
2022-08-27T01:41:34.073Z,0.83
2022-08-27T01:44:00.857Z,1.23
2022-08-27T01:46:28.936Z,1.10
2022-08-27T01:48:55.926Z,1.37
2022-08-27T01:51:22.777Z,1.03
2022-08-27T01:53:49.736Z,1.20
2022-08-27T01:56:16.440Z,1.03
2022-08-27T01:58:43.661Z,0.90
2022-08-27T02:01:14.020Z,0.90
2022-08-27T02:03:40.970Z,1.00
2022-08-27T02:06:11.313Z,0.80
2022-08-27T02:08:39.225Z,1.20
2022-08-27T02:11:08.077Z,1.13
2022-08-27T02:13:35.701Z,1.17
2022-08-27T02:16:02.569Z,1.00
2022-08-27T02:18:29.261Z,1.00
2022-08-27T02:20:55.869Z,0.80
2022-08-27T02:23:22.517Z,1.10
2022-08-27T02:25:49.191Z,0.77
2022-08-27T02:28:16.289Z,0.93
2022-08-27T02:30:42.910Z,1.10
2022-08-27T02:33:09.828Z,1.07
2022-08-27T02:35:40.352Z,1.13
2022-08-27T02:38:07.907Z,1.00
2022-08-27T02:40:35.883Z,0.90
2022-08-27T02:43:02.737Z,0.90
2022-08-27T02:45:29.780Z,1.20
2022-08-27T02:47:56.355Z,1.20
2022-08-27T02:50:27.414Z,0.90
2022-08-27T02:52:54.709Z,1.20
2022-08-27T02:55:22.366Z,0.90
2022-08-27T02:57:49.297Z,1.30
2022-08-27T03:00:20.822Z,1.00
2022-08-27T03:02:48.226Z,1.07
2022-08-27T03:05:16.210Z,0.87
2022-08-27T03:07:43.292Z,0.93
2022-08-27T03:10:12.166Z,0.73
2022-08-27T03:12:38.896Z,1.00
2022-08-27T03:15:08.081Z,1.10
2022-08-27T03:17:53.792Z,1.10
2022-08-27T03:20:20.708Z,0.90
2022-08-27T03:22:47.320Z,1.17
2022-08-27T03:25:16.531Z,1.30
2022-08-27T03:27:43.404Z,1.00
2022-08-27T03:30:15.556Z,1.00
2022-08-27T03:32:42.932Z,1.10
2022-08-27T03:35:10.190Z,1.20
2022-08-27T03:37:36.837Z,1.10
2022-08-27T03:40:04.787Z,0.93
2022-08-27T03:42:31.406Z,1.07
2022-08-27T03:44:58.024Z,1.03
2022-08-27T03:47:24.643Z,1.07
2022-08-27T03:49:51.241Z,0.97
2022-08-27T03:52:19.205Z,0.90
2022-08-27T03:54:45.912Z,1.07
2022-08-27T03:57:13.048Z,1.20
2022-08-27T03:59:39.682Z,0.93
2022-08-27T04:02:06.478Z,1.00
2022-08-27T04:04:33.202Z,0.97
2022-08-27T04:06:59.862Z,1.07
2022-08-27T04:09:26.597Z,1.20
2022-08-27T04:11:53.350Z,1.00
2022-08-27T04:14:26.848Z,1.10
2022-08-27T04:16:56.020Z,1.00
2022-08-27T04:19:27.232Z,1.60
2022-08-27T04:21:54.676Z,1.10
2022-08-27T04:24:21.253Z,1.00
2022-08-27T04:26:48.100Z,1.10
2022-08-27T04:29:14.870Z,1.30
2022-08-27T04:31:41.608Z,1.10
2022-08-27T04:34:08.358Z,1.03
2022-08-27T04:36:34.996Z,1.10
2022-08-27T04:39:01.825Z,1.30
2022-08-27T04:41:28.977Z,1.53
2022-08-27T04:43:58.113Z,1.13
2022-08-27T04:46:27.154Z,1.20
2022-08-27T04:49:01.558Z,0.97
2022-08-27T04:51:29.215Z,1.30
2022-08-27T04:53:56.416Z,1.40
2022-08-27T04:56:26.531Z,1.30
2022-08-27T04:58:54.988Z,1.40
2022-08-27T05:01:24.419Z,0.90
2022-08-27T05:03:51.525Z,1.13
2022-08-27T05:06:19.171Z,1.33
2022-08-27T05:08:47.420Z,1.47
2022-08-27T05:11:15.666Z,1.30
2022-08-27T05:13:43.505Z,1.70
2022-08-27T05:16:19.839Z,1.20
2022-08-27T05:18:48.828Z,1.30
2022-08-27T05:21:22.174Z,1.17
2022-08-27T05:23:49.927Z,1.20
2022-08-27T05:26:16.684Z,1.50
2022-08-27T05:28:44.045Z,1.50
2022-08-27T05:31:12.278Z,1.50
2022-08-27T05:33:40.048Z,1.10
2022-08-27T05:36:08.145Z,1.10
2022-08-27T05:38:35.396Z,1.27
2022-08-27T05:41:11.309Z,1.33
2022-08-27T05:43:40.077Z,1.50
2022-08-27T05:46:09.929Z,1.17
2022-08-27T05:48:37.406Z,1.60
2022-08-27T05:51:08.548Z,1.20
2022-08-27T05:53:35.808Z,1.30
2022-08-27T05:56:02.537Z,1.30
2022-08-27T05:58:48.740Z,1.13
2022-08-27T06:01:20.637Z,1.23
2022-08-27T06:03:47.309Z,1.17
2022-08-27T06:06:14.369Z,0.93
2022-08-27T06:08:40.982Z,1.40
2022-08-27T06:11:08.162Z,1.27
2022-08-27T06:13:35.863Z,1.30
2022-08-27T06:16:03.793Z,1.20
2022-08-27T06:18:34.200Z,0.97
2022-08-27T06:21:01.078Z,1.40
2022-08-27T06:23:28.706Z,1.07
2022-08-27T06:25:56.850Z,1.33
2022-08-27T06:28:26.078Z,1.40
2022-08-27T06:30:52.710Z,1.70
2022-08-27T06:33:21.092Z,1.23
2022-08-27T06:35:47.677Z,1.40
2022-08-27T06:38:14.317Z,1.10
2022-08-27T06:40:42.000Z,1.67
2022-08-27T06:43:08.680Z,1.60
2022-08-27T06:45:38.750Z,1.63
2022-08-27T06:48:05.576Z,1.50
2022-08-27T06:50:40.689Z,1.40
2022-08-27T06:53:07.363Z,1.30
2022-08-27T06:55:42.466Z,1.33
2022-08-27T06:58:09.399Z,1.60
2022-08-27T07:00:36.338Z,1.47
2022-08-27T07:03:05.354Z,1.13
2022-08-27T07:05:33.538Z,1.43
2022-08-27T07:08:00.794Z,1.37
2022-08-27T07:10:28.364Z,1.40
2022-08-27T07:12:55.067Z,1.37
2022-08-27T07:15:22.317Z,1.47
2022-08-27T07:17:51.809Z,1.33
2022-08-27T07:20:20.458Z,1.10
2022-08-27T07:22:48.489Z,1.30
2022-08-27T07:25:20.125Z,1.30
2022-08-27T07:27:48.694Z,1.20
2022-08-27T07:30:16.957Z,1.17
2022-08-27T07:32:45.037Z,1.30
2022-08-27T07:35:12.996Z,1.40
2022-08-27T07:37:40.794Z,1.47
2022-08-27T07:40:14.144Z,1.30
2022-08-27T07:43:01.280Z,1.30
2022-08-27T07:45:29.217Z,1.73
2022-08-27T07:47:56.137Z,1.20
2022-08-27T07:50:23.538Z,1.53
2022-08-27T07:52:51.193Z,1.27
2022-08-27T07:55:18.533Z,1.30
2022-08-27T07:57:47.852Z,1.20
2022-08-27T08:00:15.019Z,1.33
2022-08-27T08:02:45.018Z,1.70
2022-08-27T08:05:12.738Z,1.60
2022-08-27T08:07:39.746Z,1.10
2022-08-27T08:10:09.158Z,1.13
2022-08-27T08:12:40.688Z,1.40
2022-08-27T08:15:10.642Z,1.20
2022-08-27T08:17:38.105Z,1.50
2022-08-27T08:20:21.826Z,1.33
2022-08-27T08:22:53.761Z,1.60
2022-08-27T08:25:20.511Z,1.07
2022-08-27T08:27:48.042Z,1.13
2022-08-27T08:30:15.455Z,1.20
2022-08-27T08:32:43.521Z,1.20
2022-08-27T08:35:10.918Z,1.63
2022-08-27T08:37:38.109Z,1.00
2022-08-27T08:40:06.199Z,1.50
2022-08-27T08:42:46.987Z,1.20
2022-08-27T08:45:24.664Z,1.13
2022-08-27T08:47:57.041Z,1.33
2022-08-27T08:50:34.625Z,1.30
2022-08-27T08:53:09.417Z,1.40
2022-08-27T08:55:56.276Z,1.00
2022-08-27T08:58:36.380Z,1.33
2022-08-27T09:01:07.101Z,1.23
2022-08-27T09:03:37.684Z,1.13
2022-08-27T09:06:10.231Z,1.30
2022-08-27T09:08:41.835Z,1.23
2022-08-27T09:11:35.382Z,1.00
2022-08-27T09:14:08.353Z,2.27
2022-08-27T09:16:38.778Z,1.00
2022-08-27T09:19:06.941Z,1.20
2022-08-27T09:21:45.777Z,1.10
2022-08-27T09:24:24.782Z,1.20
2022-08-27T09:26:51.782Z,1.30
2022-08-27T09:29:20.146Z,1.20
2022-08-27T09:32:00.175Z,1.30
2022-08-27T09:34:35.305Z,1.10
2022-08-27T09:37:10.098Z,1.37
2022-08-27T09:40:02.130Z,1.13
2022-08-27T09:42:37.470Z,1.20
2022-08-27T09:45:13.632Z,1.10
2022-08-27T09:48:02.974Z,1.40
2022-08-27T09:50:43.386Z,1.30
2022-08-27T09:53:40.942Z,1.10
2022-08-27T09:56:09.793Z,1.00
2022-08-27T09:58:53.916Z,1.20
2022-08-27T10:01:27.035Z,1.40
2022-08-27T10:04:11.108Z,1.30
2022-08-27T10:06:44.758Z,1.20
2022-08-27T10:09:26.559Z,0.90
2022-08-27T10:11:58.733Z,1.23
2022-08-27T10:14:37.125Z,1.03
2022-08-27T10:17:25.053Z,1.30
2022-08-27T10:20:04.365Z,1.50
2022-08-27T10:23:10.911Z,1.00
2022-08-27T10:25:44.755Z,0.93
2022-08-27T10:28:36.754Z,1.20
2022-08-27T10:31:16.652Z,1.27
2022-08-27T10:34:01.042Z,1.50
2022-08-27T10:36:41.813Z,1.13
2022-08-27T10:39:26.472Z,1.10
2022-08-27T10:42:21.580Z,1.25
2022-08-27T10:45:00.323Z,1.00
2022-08-27T10:47:59.102Z,1.15
2022-08-27T10:50:51.038Z,0.90
2022-08-27T10:53:26.204Z,1.07
2022-08-27T10:56:09.398Z,0.93
2022-08-27T10:58:51.532Z,1.55
2022-08-27T11:01:43.246Z,1.20
2022-08-27T11:04:28.315Z,1.15
2022-08-27T11:06:54.848Z,1.30
2022-08-27T11:09:30.019Z,1.08
2022-08-27T11:12:15.784Z,1.30
2022-08-27T11:15:15.337Z,1.27
2022-08-27T11:18:09.742Z,1.15
2022-08-27T11:20:44.912Z,1.10
2022-08-27T11:23:17.218Z,0.80
2022-08-27T11:26:02.606Z,1.13
2022-08-27T11:28:37.173Z,1.20
2022-08-27T11:31:19.669Z,1.27
2022-08-27T11:34:10.189Z,1.08
2022-08-27T11:36:42.967Z,1.30
2022-08-27T11:39:28.974Z,1.30
2022-08-27T11:42:22.108Z,1.13
2022-08-27T11:44:51.165Z,1.20
2022-08-27T11:47:24.626Z,1.00
2022-08-27T11:49:55.880Z,0.90
2022-08-27T11:52:30.753Z,1.25
2022-08-27T11:55:21.496Z,1.08
2022-08-27T11:58:07.733Z,1.17
2022-08-27T12:00:38.739Z,1.67
2022-08-27T12:03:23.862Z,1.30
2022-08-27T12:05:53.649Z,1.42
2022-08-27T12:08:23.037Z,1.00
2022-08-27T12:11:04.564Z,1.15
2022-08-27T12:13:38.068Z,1.08
2022-08-27T12:16:19.308Z,1.40
2022-08-27T12:19:30.959Z,1.08
2022-08-27T12:22:25.040Z,1.50
2022-08-27T12:24:55.679Z,0.98
2022-08-27T12:27:24.406Z,0.90
2022-08-27T12:29:59.262Z,1.10
2022-08-27T12:32:30.370Z,1.00
2022-08-27T12:35:03.181Z,1.15
2022-08-27T12:37:36.046Z,1.55
2022-08-27T12:40:11.616Z,1.30
2022-08-27T12:42:38.264Z,1.17
2022-08-27T12:45:05.284Z,1.20
2022-08-27T12:47:40.541Z,1.08
2022-08-27T12:50:29.598Z,1.10
2022-08-27T12:53:23.106Z,1.13
2022-08-27T12:56:02.142Z,1.15
2022-08-27T12:58:38.708Z,1.17
2022-08-27T13:01:24.449Z,1.17
2022-08-27T13:03:54.113Z,1.23
2022-08-27T13:06:26.376Z,1.15
2022-08-27T13:08:55.606Z,1.17
2022-08-27T13:11:28.845Z,1.35
2022-08-27T13:14:11.301Z,1.02
2022-08-27T13:16:45.546Z,1.10
2022-08-27T13:19:24.318Z,1.17
2022-08-27T13:21:54.099Z,0.90
2022-08-27T13:24:33.342Z,1.08
2022-08-27T13:27:03.805Z,0.95
2022-08-27T13:29:31.171Z,1.00
2022-08-27T13:32:00.692Z,1.52
2022-08-27T13:34:31.833Z,1.10
2022-08-27T13:37:07.927Z,1.00
2022-08-27T13:39:36.991Z,1.10
2022-08-27T13:42:07.214Z,1.27
2022-08-27T13:44:36.701Z,1.20
2022-08-27T13:47:05.850Z,1.20
2022-08-27T13:49:39.896Z,1.10
2022-08-27T13:52:30.768Z,1.33
2022-08-27T13:55:07.618Z,1.20
2022-08-27T13:58:00.554Z,0.80
2022-08-27T14:00:32.681Z,1.45
2022-08-27T14:03:03.408Z,1.25
2022-08-27T14:05:36.701Z,0.80
2022-08-27T14:08:17.634Z,1.10
2022-08-27T14:10:48.877Z,1.00
2022-08-27T14:13:23.368Z,1.00
2022-08-27T14:15:55.635Z,1.17
2022-08-27T14:18:55.116Z,0.90
2022-08-27T14:21:19.834Z,1.00
2022-08-27T14:23:46.609Z,1.20
2022-08-27T14:26:13.757Z,1.00
2022-08-27T14:28:40.353Z,1.67
2022-08-27T14:31:07.086Z,1.10
2022-08-27T14:33:33.725Z,0.88
2022-08-27T14:36:00.804Z,1.27
2022-08-27T14:38:31.737Z,0.77
2022-08-27T14:40:58.497Z,1.20
2022-08-27T14:43:25.632Z,1.00
2022-08-27T14:45:53.372Z,0.88
2022-08-27T14:48:28.638Z,1.77
2022-08-27T14:50:56.594Z,1.10
2022-08-27T14:53:23.513Z,1.00
2022-08-27T14:55:51.834Z,1.38
2022-08-27T14:58:19.293Z,1.70
2022-08-27T15:00:46.261Z,0.95
2022-08-27T15:03:13.337Z,1.00
2022-08-27T15:05:43.027Z,1.33
2022-08-27T15:08:13.156Z,1.35
2022-08-27T15:10:40.232Z,0.98
2022-08-27T15:13:07.069Z,1.17
2022-08-27T15:15:33.875Z,1.10
2022-08-27T15:18:00.489Z,1.02
2022-08-27T15:20:27.361Z,0.82
2022-08-27T15:22:54.068Z,0.98
2022-08-27T15:25:21.349Z,1.23
2022-08-27T15:27:48.549Z,1.10
2022-08-27T15:30:17.255Z,1.20
2022-08-27T15:32:47.844Z,1.30
2022-08-27T15:35:18.577Z,1.00
2022-08-27T15:37:45.877Z,1.30
2022-08-27T15:40:14.950Z,1.37
2022-08-27T15:42:42.048Z,1.10
2022-08-27T15:45:09.982Z,1.37
2022-08-27T15:47:36.966Z,0.90
2022-08-27T15:50:05.001Z,1.30
2022-08-27T15:52:40.719Z,1.20
2022-08-27T15:55:18.522Z,1.23
2022-08-27T15:57:45.105Z,1.17
2022-08-27T16:00:12.352Z,1.30
2022-08-27T16:02:40.177Z,1.00
2022-08-27T16:05:07.319Z,1.00
2022-08-27T16:07:33.909Z,1.30
2022-08-27T16:10:00.519Z,1.67
2022-08-27T16:12:27.760Z,1.37
2022-08-27T16:14:55.431Z,1.53
2022-08-27T16:17:23.194Z,1.80
2022-08-27T16:19:49.946Z,1.60
2022-08-27T16:22:16.568Z,1.37
2022-08-27T16:24:43.381Z,1.37
2022-08-27T16:27:10.059Z,2.23
2022-08-27T16:29:37.368Z,2.07
2022-08-27T16:32:04.574Z,1.90
2022-08-27T16:34:32.265Z,1.97
2022-08-27T16:36:59.976Z,1.90
2022-08-27T16:39:31.777Z,1.70
2022-08-27T16:42:00.089Z,2.10
2022-08-27T16:44:26.805Z,2.10
2022-08-27T16:46:53.755Z,2.33
2022-08-27T16:49:38.793Z,1.90
2022-08-27T16:52:09.273Z,1.93
2022-08-27T16:54:36.113Z,1.87
2022-08-27T16:57:02.785Z,1.73
2022-08-27T16:59:29.469Z,2.27
2022-08-27T17:01:56.903Z,1.93
2022-08-27T17:04:30.304Z,2.10
2022-08-27T17:06:58.274Z,2.40
2022-08-27T17:09:25.128Z,2.20
2022-08-27T17:11:56.840Z,2.40
2022-08-27T17:14:23.881Z,2.13
2022-08-27T17:16:50.989Z,2.03
2022-08-27T17:19:18.694Z,2.17
2022-08-27T17:21:45.773Z,2.50
2022-08-27T17:24:13.055Z,1.93
2022-08-27T17:26:40.029Z,2.10
2022-08-27T17:29:07.002Z,2.20
2022-08-27T17:31:36.821Z,2.50
2022-08-27T17:34:06.079Z,2.33
2022-08-27T17:36:33.418Z,1.80
2022-08-27T17:39:00.183Z,2.30
2022-08-27T17:41:38.460Z,2.20
2022-08-27T17:44:25.732Z,2.20
2022-08-27T17:46:54.456Z,2.17
2022-08-27T17:49:21.570Z,2.07
2022-08-27T17:51:50.178Z,2.80
2022-08-27T17:54:22.442Z,1.87
2022-08-27T17:56:49.081Z,2.20
2022-08-27T17:59:15.674Z,2.10
2022-08-27T18:01:42.444Z,1.87
2022-08-27T18:04:09.064Z,1.90
2022-08-27T18:06:35.706Z,2.13
2022-08-27T18:09:03.666Z,1.73
2022-08-27T18:11:30.420Z,2.00
2022-08-27T18:14:04.077Z,2.30
2022-08-27T18:16:32.271Z,2.23
2022-08-27T18:18:58.913Z,2.30
2022-08-27T18:21:26.323Z,2.20
2022-08-27T18:23:54.153Z,2.50
2022-08-27T18:26:23.003Z,2.43
2022-08-27T18:28:49.770Z,2.60
2022-08-27T18:31:18.777Z,2.40
2022-08-27T18:33:45.793Z,2.50
2022-08-27T18:36:12.649Z,2.20
2022-08-27T18:38:39.282Z,2.70
2022-08-27T18:41:08.343Z,2.57
2022-08-27T18:43:35.799Z,2.07
2022-08-27T18:46:04.261Z,2.80
2022-08-27T18:48:31.369Z,2.67
2022-08-27T18:51:00.405Z,1.97
2022-08-27T18:53:30.683Z,2.40
2022-08-27T18:55:58.217Z,2.67
2022-08-27T18:58:25.260Z,2.50
2022-08-27T19:00:56.693Z,2.60
2022-08-27T19:03:31.333Z,2.27
2022-08-27T19:05:58.345Z,2.37
2022-08-27T19:08:28.207Z,2.33
2022-08-27T19:10:55.646Z,2.43
2022-08-27T19:13:22.708Z,2.90
2022-08-27T19:15:55.149Z,2.70
2022-08-27T19:18:24.485Z,3.10
2022-08-27T19:20:51.114Z,2.90
2022-08-27T19:23:22.484Z,2.77
2022-08-27T19:25:50.104Z,3.10
2022-08-27T19:28:19.092Z,2.43
2022-08-27T19:30:46.658Z,2.80
2022-08-27T19:33:13.257Z,2.97
2022-08-27T19:35:41.924Z,2.77
2022-08-27T19:38:11.539Z,2.60
2022-08-27T19:40:38.543Z,3.47
2022-08-27T19:43:05.392Z,2.77
2022-08-27T19:45:32.183Z,2.27
2022-08-27T19:47:59.696Z,2.50
2022-08-27T19:50:26.436Z,2.80
2022-08-27T19:52:53.455Z,2.00
2022-08-27T19:55:20.430Z,2.50
2022-08-27T19:57:47.772Z,2.40
2022-08-27T20:00:17.061Z,2.10
2022-08-27T20:02:43.689Z,2.33
2022-08-27T20:05:18.985Z,2.30
2022-08-27T20:07:48.350Z,2.03
2022-08-27T20:10:16.263Z,2.10
2022-08-27T20:12:43.361Z,2.37
2022-08-27T20:15:10.768Z,1.87
2022-08-27T20:17:37.404Z,2.40
2022-08-27T20:20:06.799Z,2.27
2022-08-27T20:22:33.445Z,2.63
2022-08-27T20:25:00.314Z,2.07
2022-08-27T20:27:27.029Z,2.83
2022-08-27T20:29:54.755Z,2.43
2022-08-27T20:32:22.799Z,1.97
2022-08-27T20:34:53.201Z,2.63
2022-08-27T20:37:19.881Z,1.90
2022-08-27T20:39:47.727Z,2.50
2022-08-27T20:42:14.472Z,2.27
2022-08-27T20:44:41.112Z,2.43
2022-08-27T20:47:07.911Z,2.40
2022-08-27T20:49:35.417Z,2.23
2022-08-27T20:52:04.629Z,2.50
2022-08-27T20:54:33.759Z,2.80
2022-08-27T20:57:00.965Z,2.43
2022-08-27T20:59:46.588Z,2.20
2022-08-27T21:02:15.052Z,2.13
2022-08-27T21:04:48.270Z,2.67
2022-08-27T21:07:18.924Z,2.17
2022-08-27T21:09:56.585Z,2.33
2022-08-27T21:12:27.909Z,2.30
2022-08-27T21:14:56.387Z,2.27
2022-08-27T21:17:25.431Z,2.47
2022-08-27T21:19:52.198Z,2.47
2022-08-27T21:22:19.349Z,2.07
2022-08-27T21:24:48.947Z,2.10
2022-08-27T21:27:16.928Z,2.30
2022-08-27T21:29:44.707Z,1.80
2022-08-27T21:32:12.091Z,2.30
2022-08-27T21:34:38.986Z,2.33
2022-08-27T21:37:05.668Z,1.90
2022-08-27T21:39:33.039Z,2.17
2022-08-27T21:42:01.429Z,2.17
2022-08-27T21:44:29.793Z,2.10
2022-08-27T21:46:57.006Z,1.90
2022-08-27T21:49:23.629Z,2.17
2022-08-27T21:51:50.209Z,2.10
2022-08-27T21:54:16.865Z,1.90
2022-08-27T21:56:44.489Z,2.27
2022-08-27T21:59:11.137Z,2.03
2022-08-27T22:01:38.142Z,2.40
2022-08-27T22:04:04.871Z,2.43
2022-08-27T22:06:31.454Z,2.00
2022-08-27T22:08:58.064Z,1.87
2022-08-27T22:11:25.562Z,2.20
2022-08-27T22:13:53.198Z,1.83
2022-08-27T22:16:20.146Z,2.20
2022-08-27T22:18:47.666Z,1.87
2022-08-27T22:21:21.136Z,1.77
2022-08-27T22:23:48.117Z,2.03
2022-08-27T22:26:14.701Z,2.00
2022-08-27T22:28:41.293Z,2.30
2022-08-27T22:31:08.410Z,2.63
2022-08-27T22:33:35.025Z,2.10
2022-08-27T22:36:01.768Z,2.20
2022-08-27T22:38:28.407Z,2.30
2022-08-27T22:40:55.099Z,2.00
2022-08-27T22:43:21.885Z,2.30
2022-08-27T22:45:48.534Z,2.03
2022-08-27T22:48:15.169Z,1.73
2022-08-27T22:50:41.809Z,2.00
2022-08-27T22:53:08.861Z,1.80
2022-08-27T22:55:36.061Z,2.23
2022-08-27T22:58:02.685Z,2.00
2022-08-27T23:00:32.917Z,2.10
2022-08-27T23:03:00.536Z,2.50
2022-08-27T23:05:28.273Z,2.20
2022-08-27T23:08:11.146Z,1.60
2022-08-27T23:10:38.344Z,1.73
2022-08-27T23:13:05.745Z,2.50
2022-08-27T23:15:32.626Z,2.30
2022-08-27T23:18:01.407Z,2.67
2022-08-27T23:20:28.805Z,2.40
2022-08-27T23:22:56.624Z,2.10
2022-08-27T23:25:44.463Z,1.93
2022-08-27T23:28:15.176Z,2.03
2022-08-27T23:30:43.543Z,1.90
2022-08-27T23:33:10.522Z,2.20
2022-08-27T23:35:37.312Z,2.20
2022-08-27T23:38:04.969Z,2.10
2022-08-27T23:40:31.747Z,1.93
2022-08-27T23:42:58.564Z,2.00
2022-08-27T23:45:26.208Z,2.00
2022-08-27T23:47:53.121Z,2.47
2022-08-27T23:50:21.880Z,2.20
2022-08-27T23:52:55.670Z,2.20
2022-08-27T23:55:22.550Z,2.00
2022-08-27T23:57:50.230Z,2.30
